Time;durP1;ratioP1;P1;durP2;ratioP2;P2;SDS_P1;SDS_P2;PMS_P1;PMS_P2;Temp;Humidity;BMP_temperature;BMP_pressure;BME280_temperature;BME280_humidity;BME280_pressure;Samples;Min_cycle;Max_cycle;Signal;HPM_P1;HPM_P2
2021/10/22 00:02:08;;;;;;;19.07;6.53;;;;;;;11.00;100.00;99821.17;1717862;83;21345;-76
2021/10/22 00:05:15;;;;;;;16.90;6.05;;;;;;;11.03;100.00;99829.54;1717932;83;21314;-78
2021/10/22 00:08:20;;;;;;;17.27;7.08;;;;;;;11.06;100.00;99829.17;1713535;83;21318;-78
2021/10/22 00:11:27;;;;;;;14.83;5.45;;;;;;;11.07;100.00;99828.13;1710724;84;21279;-78
2021/10/22 00:14:33;;;;;;;13.45;5.85;;;;;;;11.09;100.00;99835.09;1710786;84;21352;-78
2021/10/22 00:17:38;;;;;;;11.22;5.58;;;;;;;11.10;100.00;99832.67;1710746;84;21240;-76
2021/10/22 00:20:44;;;;;;;17.80;5.50;;;;;;;11.14;100.00;99828.52;1710831;84;21793;-78
2021/10/22 00:23:49;;;;;;;10.95;4.97;;;;;;;11.15;100.00;99820.66;1710758;84;21357;-76
2021/10/22 00:26:54;;;;;;;13.25;5.22;;;;;;;11.16;100.00;99811.92;1710756;84;21327;-76
2021/10/22 00:30:01;;;;;;;17.50;6.80;;;;;;;11.17;100.00;99806.77;1710666;84;21310;-78
2021/10/22 00:33:07;;;;;;;16.10;6.75;;;;;;;11.18;100.00;99795.62;1709861;84;21351;-77
2021/10/22 00:36:11;;;;;;;16.40;6.30;;;;;;;11.21;100.00;99782.08;1709474;84;21235;-78
2021/10/22 00:39:16;;;;;;;10.45;5.28;;;;;;;11.21;100.00;99791.66;1709576;84;21284;-78
2021/10/22 00:42:21;;;;;;;10.65;5.15;;;;;;;11.19;100.00;99793.20;1710318;84;21204;-78
2021/10/22 00:45:27;;;;;;;19.10;6.28;;;;;;;11.19;100.00;99802.78;1709331;84;21279;-78
2021/10/22 00:48:32;;;;;;;13.50;6.05;;;;;;;11.19;100.00;99797.83;1709433;84;21342;-76
2021/10/22 00:51:31;;;;;;;15.88;6.25;;;;;;;11.18;100.00;99785.19;1710596;84;21294;-76
2021/10/22 00:54:24;;;;;;;14.55;5.80;;;;;;;11.17;100.00;99774.77;1709622;84;21302;-78
2021/10/22 00:57:31;;;;;;;23.12;7.53;;;;;;;11.18;100.00;99772.87;1710953;84;21327;-76
2021/10/22 01:00:36;;;;;;;18.85;6.50;;;;;;;11.18;100.00;99766.03;1719384;83;21817;-78
2021/10/22 01:03:42;;;;;;;9.38;4.67;;;;;;;11.17;100.00;99773.39;1733429;83;21311;-78
2021/10/22 01:06:48;;;;;;;10.00;5.50;;;;;;;11.17;100.00;99764.34;1733461;83;21741;-78
2021/10/22 01:09:54;;;;;;;13.35;6.15;;;;;;;11.17;100.00;99763.81;1734868;82;21200;-76
2021/10/22 01:13:00;;;;;;;11.93;6.10;;;;;;;11.18;100.00;99762.77;1738538;82;21358;-78
2021/10/22 01:16:05;;;;;;;18.40;7.03;;;;;;;11.19;100.00;99767.72;1716460;82;21841;-76
2021/10/22 01:19:11;;;;;;;13.80;6.25;;;;;;;11.19;100.00;99761.72;1700842;84;21719;-78
2021/10/22 01:22:22;;;;;;;13.95;6.72;;;;;;;11.20;100.00;99759.33;1700878;84;21327;-76
2021/10/22 01:25:29;;;;;;;23.83;7.10;;;;;;;11.20;100.00;99766.17;1700830;84;21341;-76
2021/10/22 01:28:35;;;;;;;14.30;6.62;;;;;;;11.20;100.00;99777.66;1699597;84;21366;-76
2021/10/22 01:31:41;;;;;;;16.52;6.90;;;;;;;11.18;100.00;99770.13;1736732;82;21871;-76
2021/10/22 01:34:46;;;;;;;21.33;7.75;;;;;;;11.18;100.00;99774.23;1744141;82;21347;-78
2021/10/22 01:37:51;;;;;;;15.05;6.72;;;;;;;11.16;100.00;99766.75;1743404;82;21757;-78
2021/10/22 01:40:57;;;;;;;16.42;7.50;;;;;;;11.17;100.00;99765.70;1744022;82;21832;-78
2021/10/22 01:44:07;;;;;;;18.42;7.87;;;;;;;11.17;100.00;99766.55;1744089;82;21156;-78
2021/10/22 01:47:12;;;;;;;13.43;7.60;;;;;;;11.17;100.00;99769.81;1743770;82;21314;-76
2021/10/22 01:50:18;;;;;;;20.50;7.00;;;;;;;11.17;100.00;99775.29;1742841;82;21350;-76
2021/10/22 01:53:25;;;;;;;16.97;7.42;;;;;;;11.16;100.00;99769.49;1742928;82;21212;-76
2021/10/22 01:56:32;;;;;;;24.52;8.38;;;;;;;11.18;100.00;99771.50;1744092;82;21271;-76
2021/10/22 01:59:37;;;;;;;15.68;6.97;;;;;;;11.19;100.00;99769.08;1743486;82;21784;-76
2021/10/22 02:02:44;;;;;;;23.90;8.25;;;;;;;11.20;100.00;99759.33;1743492;82;21318;-78
2021/10/22 02:05:49;;;;;;;19.62;8.53;;;;;;;11.19;100.00;99758.98;1744095;82;21287;-78
2021/10/22 02:08:56;;;;;;;17.65;8.38;;;;;;;11.19;100.00;99780.87;1742714;82;21786;-78
2021/10/22 02:12:01;;;;;;;17.37;7.42;;;;;;;11.17;100.00;99773.92;1741847;82;21199;-78
2021/10/22 02:15:06;;;;;;;21.20;8.43;;;;;;;11.16;100.00;99776.34;1739896;82;21806;-78
2021/10/22 02:18:12;;;;;;;19.57;7.87;;;;;;;11.14;100.00;99783.88;1721152;83;21212;-78
2021/10/22 02:21:17;;;;;;;21.65;8.68;;;;;;;11.12;100.00;99786.81;1721068;83;21176;-76
2021/10/22 02:24:24;;;;;;;20.85;9.15;;;;;;;11.11;100.00;99781.55;1720725;83;21330;-78
2021/10/22 02:27:29;;;;;;;23.57;9.78;;;;;;;11.09;100.00;99779.50;1720688;83;21314;-76
2021/10/22 02:30:36;;;;;;;20.52;7.47;;;;;;;11.07;100.00;99770.13;1716940;83;21379;-78
2021/10/22 02:33:42;;;;;;;25.27;9.75;;;;;;;11.07;100.00;99772.86;1714516;83;22247;-76
2021/10/22 02:36:49;;;;;;;25.90;9.28;;;;;;;11.05;100.00;99778.19;1714632;83;21283;-76
2021/10/22 02:39:56;;;;;;;20.95;8.45;;;;;;;11.05;100.00;99772.71;1715277;83;21188;-76
2021/10/22 02:43:01;;;;;;;18.95;8.53;;;;;;;11.03;100.00;99783.02;1715230;83;21338;-76
2021/10/22 02:46:07;;;;;;;26.73;10.38;;;;;;;10.99;100.00;99772.44;1717732;83;21238;-78
2021/10/22 02:49:12;;;;;;;26.12;10.03;;;;;;;11.00;100.00;99772.77;1719834;83;21195;-76
2021/10/22 02:52:18;;;;;;;29.15;10.48;;;;;;;10.98;100.00;99759.81;1719932;83;21859;-76
2021/10/22 02:55:23;;;;;;;21.05;8.20;;;;;;;10.98;100.00;99750.23;1720343;83;21298;-76
2021/10/22 02:58:28;;;;;;;24.60;9.48;;;;;;;10.98;100.00;99754.33;1720138;83;21212;-78
2021/10/22 03:01:34;;;;;;;26.52;11.18;;;;;;;10.98;100.00;99754.86;1716017;83;21705;-76
2021/10/22 03:04:38;;;;;;;20.90;9.48;;;;;;;10.97;100.00;99735.38;1716006;83;21888;-76
2021/10/22 03:07:44;;;;;;;19.75;9.60;;;;;;;10.98;100.00;99746.12;1715550;83;21313;-78
2021/10/22 03:10:49;;;;;;;23.45;9.88;;;;;;;10.98;100.00;99739.80;1714297;83;21306;-78
2021/10/22 03:13:55;;;;;;;22.82;9.33;;;;;;;10.98;100.00;99746.65;1709313;84;21287;-76
2021/10/22 03:16:59;;;;;;;28.67;9.53;;;;;;;10.98;100.00;99739.28;1710443;84;21342;-76
2021/10/22 03:20:04;;;;;;;30.17;10.38;;;;;;;11.02;100.00;99730.70;1708900;83;21276;-78
2021/10/22 03:23:10;;;;;;;26.95;8.55;;;;;;;11.03;100.00;99741.97;1702740;83;22129;-76
2021/10/22 03:26:15;;;;;;;24.12;9.80;;;;;;;11.04;100.00;99739.55;1695721;84;21229;-76
2021/10/22 03:29:19;;;;;;;19.80;9.78;;;;;;;11.05;100.00;99742.61;1675687;85;21283;-76
2021/10/22 03:32:24;;;;;;;31.10;11.10;;;;;;;11.06;100.00;99732.02;1666209;86;21878;-78
2021/10/22 03:35:29;;;;;;;29.15;11.28;;;;;;;11.08;100.00;99726.66;1707227;84;21715;-76
2021/10/22 03:38:34;;;;;;;28.27;10.88;;;;;;;11.10;100.00;99710.87;1704854;84;21195;-76
2021/10/22 03:41:42;;;;;;;23.80;8.35;;;;;;;11.11;100.00;99709.02;1731972;83;21306;-76
2021/10/22 03:44:47;;;;;;;21.80;9.80;;;;;;;11.12;100.00;99697.86;1711827;83;21181;-78
2021/10/22 03:47:52;;;;;;;25.30;10.32;;;;;;;11.13;100.00;99705.55;1704649;83;21761;-79
2021/10/22 03:50:57;;;;;;;26.23;10.72;;;;;;;11.13;100.00;99712.39;1704925;84;21279;-78
2021/10/22 03:54:03;;;;;;;20.88;10.25;;;;;;;11.15;100.00;99726.22;1705415;84;21175;-76
2021/10/22 03:57:08;;;;;;;30.43;10.85;;;;;;;11.15;100.00;99726.22;1721071;83;21350;-78
2021/10/22 04:00:15;;;;;;;38.90;12.15;;;;;;;11.16;100.00;99722.44;1727814;83;21201;-78
2021/10/22 04:03:20;;;;;;;26.27;10.72;;;;;;;11.17;100.00;99731.48;1710570;83;21882;-78
2021/10/22 04:06:26;;;;;;;28.00;10.53;;;;;;;11.17;100.00;99734.23;1707074;83;21268;-77
2021/10/22 04:09:33;;;;;;;32.75;12.15;;;;;;;11.16;100.00;99736.64;1705468;84;21340;-76
2021/10/22 04:12:38;;;;;;;23.83;9.73;;;;;;;11.14;100.00;99731.87;1704539;83;21208;-76
2021/10/22 04:15:44;;;;;;;26.05;10.80;;;;;;;11.12;100.00;99751.76;1705932;83;21208;-78
2021/10/22 04:18:43;;;;;;;31.00;11.33;;;;;;;11.10;100.00;99753.82;1722916;82;21283;-76
2021/10/22 04:21:48;;;;;;;31.68;12.03;;;;;;;11.09;100.00;99756.23;1711805;82;21376;-76
2021/10/22 04:24:54;;;;;;;28.32;12.78;;;;;;;11.09;100.00;99754.34;1702676;82;21335;-76
2021/10/22 04:27:59;;;;;;;35.60;11.90;;;;;;;11.12;100.00;99758.08;1723418;82;22225;-76
2021/10/22 04:31:04;;;;;;;40.80;12.33;;;;;;;11.15;100.00;99769.14;1714444;82;21345;-76
2021/10/22 04:34:09;;;;;;;26.57;10.55;;;;;;;11.18;100.00;99774.23;1713199;84;21926;-76
2021/10/22 04:40:33;;;;;;;35.10;12.82;;;;;;;11.17;100.00;99777.50;1703928;82;21354;-78
2021/10/22 04:43:38;;;;;;;24.77;11.15;;;;;;;11.19;100.00;99792.36;1750187;82;21398;-78
2021/10/22 04:46:43;;;;;;;23.47;11.53;;;;;;;11.21;100.00;99791.66;1715339;82;21315;-78
2021/10/22 04:49:49;;;;;;;35.78;13.20;;;;;;;11.23;100.00;99805.47;1681657;83;21263;-78
2021/10/22 04:52:55;;;;;;;32.15;11.22;;;;;;;11.25;100.00;99811.61;1712883;84;21887;-78
2021/10/22 04:56:02;;;;;;;21.20;9.50;;;;;;;11.29;100.00;99820.79;1710851;83;21322;-78
2021/10/22 04:59:06;;;;;;;21.80;11.53;;;;;;;11.32;100.00;99837.69;1709953;82;21299;-79
2021/10/22 05:02:12;;;;;;;27.65;11.38;;;;;;;11.36;100.00;99832.68;1696535;83;21325;-78
2021/10/22 05:05:18;;;;;;;27.67;11.00;;;;;;;11.40;100.00;99834.84;1722884;82;21327;-78
2021/10/22 05:08:23;;;;;;;27.62;11.75;;;;;;;11.46;100.00;99842.27;1714346;82;21203;-78
2021/10/22 05:11:29;;;;;;;25.10;10.90;;;;;;;11.51;100.00;99834.33;1708701;82;21165;-77
2021/10/22 05:14:35;;;;;;;22.02;11.35;;;;;;;11.58;100.00;99833.05;1708684;82;21293;-77
2021/10/22 05:17:41;;;;;;;22.30;12.05;;;;;;;11.62;100.00;99826.14;1720477;82;21330;-76
2021/10/22 05:20:47;;;;;;;22.95;11.90;;;;;;;11.68;100.00;99818.50;1710609;82;21313;-76
2021/10/22 05:23:53;;;;;;;18.00;10.70;;;;;;;11.77;100.00;99816.48;1714081;82;21568;-76
2021/10/22 05:26:59;;;;;;;28.32;12.75;;;;;;;11.82;100.00;99812.66;1714929;82;21188;-76
2021/10/22 05:30:04;;;;;;;19.67;10.53;;;;;;;11.87;100.00;99801.95;1705379;83;21219;-76
2021/10/22 05:33:15;;;;;;;18.48;10.38;;;;;;;11.92;100.00;99826.88;1715057;82;21832;-77
2021/10/22 05:36:17;;;;;;;26.10;11.45;;;;;;;11.96;100.00;99824.06;1711646;82;21309;-76
2021/10/22 05:39:22;;;;;;;23.52;12.30;;;;;;;12.01;100.00;99822.11;1712221;82;21160;-78
2021/10/22 05:42:27;;;;;;;25.77;11.43;;;;;;;12.05;100.00;99823.94;1709272;82;21318;-78
2021/10/22 05:45:32;;;;;;;21.20;11.10;;;;;;;12.11;100.00;99838.21;1706871;83;22171;-76
2021/10/22 05:48:38;;;;;;;20.43;11.10;;;;;;;12.15;100.00;99834.03;1711729;82;21181;-76
2021/10/22 05:51:44;;;;;;;24.15;10.43;;;;;;;12.17;100.00;99838.26;1707082;82;21277;-76
2021/10/22 05:54:49;;;;;;;22.52;10.72;;;;;;;12.22;99.87;99835.77;1708149;82;21260;-76
2021/10/22 05:57:54;;;;;;;18.42;10.80;;;;;;;12.27;99.43;99831.91;1709726;82;21297;-76
2021/10/22 06:00:59;;;;;;;27.30;11.75;;;;;;;12.35;98.96;99846.53;1709618;82;21327;-76
2021/10/22 06:04:08;;;;;;;24.75;10.78;;;;;;;12.37;98.21;99852.65;1706391;82;21197;-76
2021/10/22 06:07:13;;;;;;;26.55;11.43;;;;;;;12.37;97.61;99854.02;1708517;82;21282;-76
2021/10/22 06:10:20;;;;;;;27.98;12.25;;;;;;;12.40;97.27;99864.08;1707808;82;21201;-78
2021/10/22 06:13:26;;;;;;;23.98;11.00;;;;;;;12.44;96.91;99867.28;1707140;82;21883;-78
2021/10/22 06:16:32;;;;;;;20.27;10.48;;;;;;;12.45;96.40;99875.83;1671108;83;21501;-77
2021/10/22 06:19:40;;;;;;;22.32;11.22;;;;;;;12.47;96.08;99870.48;1637231;85;21568;-76
2021/10/22 06:26:01;;;;;;;27.37;10.65;;;;;;;12.49;95.07;99886.20;1636187;85;21376;-76
2021/10/22 06:29:07;;;;;;;21.27;9.63;;;;;;;12.56;94.87;99882.65;1635854;85;21674;-76
2021/10/22 06:32:12;;;;;;;19.12;10.48;;;;;;;12.64;94.55;99878.39;1635536;85;21384;-78
2021/10/22 06:35:17;;;;;;;27.27;13.03;;;;;;;12.73;93.87;99867.06;1634913;86;21578;-76
2021/10/22 06:38:23;;;;;;;31.17;11.12;;;;;;;12.80;93.19;99872.61;1629932;86;21401;-76
2021/10/22 06:41:28;;;;;;;24.20;10.40;;;;;;;12.87;92.95;99869.36;1627961;86;21366;-76
2021/10/22 06:44:35;;;;;;;22.45;10.20;;;;;;;12.97;92.75;99875.86;1643563;85;21455;-77
2021/10/22 06:47:41;;;;;;;22.85;10.25;;;;;;;13.10;92.46;99869.60;1642437;85;21350;-78
2021/10/22 06:50:47;;;;;;;31.70;13.15;;;;;;;13.18;91.75;99866.16;1638616;85;21818;-76
2021/10/22 06:53:53;;;;;;;23.35;11.88;;;;;;;13.24;90.89;99859.88;1641944;85;21567;-76
2021/10/22 06:56:58;;;;;;;28.27;12.78;;;;;;;13.34;90.63;99849.04;1644291;85;21326;-76
2021/10/22 07:00:03;;;;;;;27.62;11.85;;;;;;;13.45;90.13;99851.18;1646789;85;21247;-76
2021/10/22 07:03:15;;;;;;;22.05;11.55;;;;;;;13.53;89.45;99854.59;1643771;85;21851;-76
2021/10/22 07:09:39;;;;;;;23.07;10.72;;;;;;;13.58;87.66;99856.72;1641353;85;21318;-75
2021/10/22 07:12:44;;;;;;;23.50;12.82;;;;;;;13.54;87.59;99852.69;1627336;86;21237;-75
2021/10/22 07:15:49;;;;;;;20.85;12.58;;;;;;;13.60;88.06;99860.12;1632709;85;21324;-75
2021/10/22 07:18:55;;;;;;;17.85;12.47;;;;;;;13.68;87.76;99862.66;1651142;85;21307;-75
2021/10/22 07:22:06;;;;;;;23.38;13.13;;;;;;;13.77;87.71;99894.94;1639346;86;21749;-75
2021/10/22 07:25:12;;;;;;;22.65;12.95;;;;;;;13.89;87.22;99916.66;1660567;85;21204;-75
2021/10/22 07:28:20;;;;;;;27.27;13.25;;;;;;;14.01;86.61;99916.87;1664389;85;21827;-75
2021/10/22 07:31:26;;;;;;;21.42;11.88;;;;;;;14.06;85.74;99924.82;1669522;85;21318;-76
2021/10/22 07:34:30;;;;;;;27.05;13.30;;;;;;;14.09;84.92;99919.45;1658704;85;21319;-76
2021/10/22 07:37:36;;;;;;;20.50;12.20;;;;;;;14.04;84.39;99909.59;1661987;85;21822;-76
2021/10/22 07:40:41;;;;;;;20.92;12.23;;;;;;;14.03;84.66;99923.88;1655800;85;21236;-76
2021/10/22 07:43:47;;;;;;;20.52;10.95;;;;;;;14.08;84.83;99918.29;1646767;85;21766;-76
2021/10/22 07:46:54;;;;;;;28.90;15.20;;;;;;;14.06;84.19;99925.35;1662520;84;21295;-76
2021/10/22 07:50:00;;;;;;;29.85;14.50;;;;;;;14.04;84.12;99931.06;1660646;84;21858;-76
2021/10/22 07:53:06;;;;;;;23.20;13.70;;;;;;;14.10;84.24;99925.78;1645801;85;21183;-78
2021/10/22 07:56:12;;;;;;;25.95;14.15;;;;;;;14.11;84.20;99917.84;1644298;85;21323;-78
2021/10/22 07:59:21;;;;;;;26.45;14.40;;;;;;;14.17;84.17;99914.28;1652332;85;21937;-78
2021/10/22 08:02:27;;;;;;;28.57;14.15;;;;;;;14.26;84.23;99924.03;1636013;86;21354;-78
2021/10/22 08:05:33;;;;;;;26.68;15.60;;;;;;;14.40;84.25;99913.36;1663059;84;21269;-78
2021/10/22 08:08:39;;;;;;;24.15;14.45;;;;;;;14.57;83.92;99916.55;1659214;85;21910;-78
2021/10/22 08:11:44;;;;;;;21.75;13.95;;;;;;;14.72;83.16;99915.80;1654391;85;21190;-78
2021/10/22 08:14:51;;;;;;;25.48;13.25;;;;;;;14.82;82.06;99920.37;1663527;85;21725;-79
2021/10/22 08:17:57;;;;;;;25.72;12.78;;;;;;;14.81;81.23;99921.41;1657962;83;21203;-78
2021/10/22 08:21:16;;;;;;;28.42;12.58;;;;;;;14.77;80.73;99911.91;1659337;85;21535;-79
2021/10/22 08:24:10;;;;;;;22.10;12.13;;;;;;;14.72;80.77;99921.84;1660614;85;21271;-78
2021/10/22 08:27:15;;;;;;;23.45;12.70;;;;;;;14.70;80.99;99910.20;1657398;85;21346;-78
2021/10/22 08:30:26;;;;;;;18.82;11.88;;;;;;;14.74;81.25;99906.81;1657008;85;21845;-78
2021/10/22 08:33:35;;;;;;;29.75;13.72;;;;;;;14.80;81.00;99913.36;1655926;85;21314;-75
2021/10/22 08:36:40;;;;;;;20.60;9.95;;;;;;;14.81;80.71;99912.30;1657462;85;21184;-75
2021/10/22 08:39:47;;;;;;;25.15;12.75;;;;;;;14.81;80.56;99913.67;1657827;85;21488;-76
2021/10/22 08:42:52;;;;;;;21.52;12.88;;;;;;;14.83;80.24;99918.45;1657121;85;21184;-75
2021/10/22 08:45:58;;;;;;;22.35;11.28;;;;;;;14.83;80.16;99919.30;1668181;84;21292;-75
2021/10/22 08:49:04;;;;;;;26.42;11.80;;;;;;;14.91;80.22;99914.08;1648880;85;21316;-77
2021/10/22 08:52:09;;;;;;;22.25;12.23;;;;;;;14.97;79.75;99920.13;1658476;85;21386;-78
2021/10/22 08:55:15;;;;;;;26.23;13.15;;;;;;;15.05;79.51;99923.17;1660750;85;21362;-75
2021/10/22 08:58:20;;;;;;;24.75;11.97;;;;;;;15.13;79.22;99920.73;1659111;85;21207;-75
2021/10/22 09:01:25;;;;;;;25.88;11.05;;;;;;;15.22;78.92;99918.06;1657049;85;21361;-76
2021/10/22 09:04:41;;;;;;;20.85;10.50;;;;;;;15.29;78.87;99914.23;1655223;85;21244;-75
2021/10/22 09:08:05;;;;;;;31.40;11.10;;;;;;;15.38;78.13;99919.48;1653352;85;21518;-75
2021/10/22 09:11:03;;;;;;;22.80;11.03;;;;;;;15.41;77.76;99910.26;1637524;86;21202;-76
2021/10/22 09:14:15;;;;;;;18.52;10.70;;;;;;;15.48;77.50;99911.09;1662003;85;21294;-78
2021/10/22 09:17:22;;;;;;;22.80;11.73;;;;;;;15.57;76.64;99909.78;1665586;84;21951;-78
2021/10/22 09:20:35;;;;;;;21.30;9.33;;;;;;;15.65;76.33;99917.51;1649650;85;21893;-76
2021/10/22 09:23:43;;;;;;;22.70;10.68;;;;;;;15.69;76.01;99912.72;1653752;85;21337;-75
2021/10/22 09:26:51;;;;;;;25.08;11.45;;;;;;;15.75;75.45;99916.50;1652630;85;21189;-75
2021/10/22 09:29:56;;;;;;;30.45;12.07;;;;;;;15.79;75.10;99910.87;1656896;85;21277;-75
2021/10/22 09:33:05;;;;;;;21.93;12.13;;;;;;;15.80;74.33;99909.26;1638875;86;21662;-76
2021/10/22 09:36:10;;;;;;;23.50;11.10;;;;;;;15.83;74.48;99916.26;1638735;86;21863;-76
2021/10/22 09:39:25;;;;;;;23.32;12.15;;;;;;;15.88;74.17;99908.17;1638475;86;21635;-78
2021/10/22 09:42:30;;;;;;;16.62;9.18;;;;;;;15.94;73.33;99911.95;1637886;86;21209;-78
2021/10/22 09:45:37;;;;;;;21.62;12.03;;;;;;;16.00;73.17;99921.58;1638723;86;21287;-78
2021/10/22 09:48:43;;;;;;;21.90;11.30;;;;;;;16.08;72.66;99912.18;1656656;85;21322;-78
2021/10/22 09:51:54;;;;;;;21.65;10.70;;;;;;;16.15;72.58;99915.75;1650721;86;21339;-78
2021/10/22 09:55:20;;;;;;;20.00;10.68;;;;;;;16.18;72.33;99907.02;1593917;86;21181;-78
2021/10/22 09:58:24;;;;;;;28.32;11.75;;;;;;;16.23;71.68;99911.36;1625267;86;21339;-78
2021/10/22 10:01:31;;;;;;;22.45;11.08;;;;;;;16.31;71.21;99910.22;1591367;87;21354;-78
2021/10/22 10:04:37;;;;;;;20.35;10.53;;;;;;;16.35;71.01;99912.85;1621148;86;21350;-78
2021/10/22 10:07:50;;;;;;;23.60;10.30;;;;;;;16.41;70.87;99902.83;1636501;86;21787;-78
2021/10/22 10:10:57;;;;;;;27.15;11.43;;;;;;;16.45;70.51;99894.41;1654383;85;22128;-77
2021/10/22 10:14:04;;;;;;;19.02;9.73;;;;;;;16.52;69.73;99897.44;1626626;86;21346;-78
2021/10/22 10:17:08;;;;;;;19.73;9.40;;;;;;;16.58;69.35;99901.20;1625576;86;21649;-79
2021/10/22 10:20:19;;;;;;;20.23;10.60;;;;;;;16.61;68.96;99894.70;1631159;86;21263;-78
2021/10/22 10:23:23;;;;;;;30.30;10.58;;;;;;;16.66;68.56;99891.81;1662410;85;21805;-76
2021/10/22 10:26:35;;;;;;;22.93;9.83;;;;;;;16.67;68.32;99890.19;1666303;85;21764;-76
2021/10/22 10:29:47;;;;;;;17.40;8.80;;;;;;;16.72;67.46;99893.15;1659812;85;21815;-76
2021/10/22 10:32:52;;;;;;;18.57;9.88;;;;;;;16.80;66.76;99894.79;1655649;85;21872;-76
2021/10/22 10:35:59;;;;;;;27.07;10.53;;;;;;;16.85;66.56;99893.56;1663897;85;21330;-78
2021/10/22 10:39:06;;;;;;;26.95;9.68;;;;;;;16.90;66.28;99892.88;1660841;85;21294;-78
2021/10/22 10:42:40;;;;;;;24.07;10.28;;;;;;;16.92;66.15;99900.39;1660180;85;21361;-78
2021/10/22 10:45:47;;;;;;;25.57;9.60;;;;;;;16.92;66.13;99898.47;1666027;85;21681;-79
2021/10/22 10:48:52;;;;;;;22.15;9.70;;;;;;;16.92;65.96;99898.47;1631403;86;21438;-78
2021/10/22 10:51:57;;;;;;;18.55;9.48;;;;;;;16.95;65.98;99901.33;1650746;86;21370;-78
2021/10/22 10:55:32;;;;;;;25.52;10.03;;;;;;;16.98;65.94;99898.09;1664903;85;21452;-78
2021/10/22 10:58:36;;;;;;;18.50;10.18;;;;;;;16.99;66.13;99895.66;1615591;87;21827;-78
2021/10/22 11:01:41;;;;;;;19.30;8.85;;;;;;;17.03;65.64;99891.34;1654385;85;21283;-77
2021/10/22 11:04:56;;;;;;;20.62;9.23;;;;;;;17.05;64.51;99898.34;1660775;85;21964;-78
2021/10/22 11:08:19;;;;;;;19.85;8.88;;;;;;;17.11;63.71;99890.52;1663272;85;21832;-78
2021/10/22 11:11:33;;;;;;;18.20;9.85;;;;;;;17.16;63.75;99893.97;1656108;85;21363;-78
2021/10/22 11:14:57;;;;;;;24.87;9.70;;;;;;;17.20;63.94;99895.74;1635559;86;21159;-78
2021/10/22 11:17:58;;;;;;;17.40;9.15;;;;;;;17.22;63.87;99898.60;1650834;85;21965;-78
2021/10/22 11:21:04;;;;;;;17.65;9.80;;;;;;;17.26;63.69;99896.20;1669512;83;21767;-78
2021/10/22 11:24:11;;;;;;;17.98;9.10;;;;;;;17.29;63.18;99897.97;1684034;84;21279;-76
2021/10/22 11:27:20;;;;;;;15.65;8.58;;;;;;;17.33;62.84;99885.92;1678317;83;21307;-76
2021/10/22 11:30:25;;;;;;;16.35;8.00;;;;;;;17.40;61.99;99892.20;1661325;85;21173;-76
2021/10/22 11:33:35;;;;;;;14.73;8.45;;;;;;;17.46;61.58;99889.92;1654319;85;21774;-76
2021/10/22 11:36:39;;;;;;;23.83;8.68;;;;;;;17.50;61.37;99887.51;1656845;85;21575;-76
2021/10/22 11:39:54;;;;;;;18.67;9.85;;;;;;;17.57;61.33;99891.05;1692053;83;21232;-76
2021/10/22 11:42:59;;;;;;;18.52;8.65;;;;;;;17.60;60.91;99891.44;1688575;83;21337;-76
2021/10/22 11:46:05;;;;;;;18.07;9.35;;;;;;;17.64;60.16;99889.03;1689440;83;21172;-76
2021/10/22 11:49:10;;;;;;;19.65;9.15;;;;;;;17.67;59.70;99882.20;1686394;83;21346;-76
2021/10/22 11:52:22;;;;;;;20.60;9.00;;;;;;;17.69;59.07;99875.88;1672297;84;21236;-75
2021/10/22 11:55:32;;;;;;;18.25;9.58;;;;;;;17.69;57.67;99877.27;1670622;85;21314;-76
2021/10/22 11:58:42;;;;;;;20.10;9.08;;;;;;;17.72;56.87;99875.43;1657572;86;21797;-76
2021/10/22 12:01:47;;;;;;;20.08;9.70;;;;;;;17.77;56.26;99886.66;1678305;84;21288;-76
2021/10/22 12:04:56;;;;;;;19.52;9.83;;;;;;;17.80;56.45;99880.67;1677309;84;21227;-78
2021/10/22 12:08:06;;;;;;;19.15;9.25;;;;;;;17.76;56.52;99884.44;1679113;84;21869;-78
2021/10/22 12:11:14;;;;;;;29.40;9.28;;;;;;;17.74;56.78;99877.47;1682301;83;21287;-78
2021/10/22 12:14:23;;;;;;;16.97;8.80;;;;;;;17.71;56.98;99880.13;1680245;85;21283;-79
2021/10/22 12:17:34;;;;;;;16.25;8.90;;;;;;;17.66;57.25;99875.83;1676175;84;21936;-78
2021/10/22 12:20:40;;;;;;;16.60;8.93;;;;;;;17.60;57.44;99874.00;1683345;85;21306;-78
2021/10/22 12:23:46;;;;;;;36.98;9.78;;;;;;;17.56;57.63;99876.38;1701074;84;21275;-79
2021/10/22 12:26:53;;;;;;;18.25;9.63;;;;;;;17.48;58.03;99872.55;1659598;85;21291;-76
2021/10/22 12:30:09;;;;;;;16.87;8.63;;;;;;;17.37;58.13;99867.27;1687876;85;21900;-76
2021/10/22 12:33:18;;;;;;;15.55;8.53;;;;;;;17.33;58.28;99878.47;1672194;85;21793;-76
2021/10/22 12:36:24;;;;;;;14.65;7.95;;;;;;;17.35;58.27;99882.38;1687714;85;21334;-78
2021/10/22 12:39:34;;;;;;;16.42;8.78;;;;;;;17.35;58.11;99885.14;1689881;85;21259;-78
2021/10/22 12:42:41;;;;;;;20.97;8.30;;;;;;;17.40;58.03;99883.91;1680136;85;22183;-78
2021/10/22 12:45:54;;;;;;;28.83;11.18;;;;;;;17.48;57.39;99884.98;1679703;85;21802;-78
2021/10/22 12:48:59;;;;;;;17.30;9.25;;;;;;;17.56;57.29;99883.84;1674482;85;21327;-75
2021/10/22 12:52:10;;;;;;;22.15;9.48;;;;;;;17.58;56.59;99886.66;1683420;85;21728;-75
2021/10/22 12:55:27;;;;;;;20.62;9.13;;;;;;;17.56;56.79;99884.68;1689049;84;21726;-75
2021/10/22 12:58:32;;;;;;;21.17;9.40;;;;;;;17.55;57.49;99885.77;1650739;85;21315;-78
2021/10/22 13:01:48;;;;;;;15.43;8.20;;;;;;;17.52;57.23;99889.52;1672240;85;21296;-78
2021/10/22 13:04:53;;;;;;;18.37;9.30;;;;;;;17.46;56.57;99887.16;1687995;85;21236;-78
2021/10/22 13:08:31;;;;;;;21.42;8.85;;;;;;;17.41;57.21;99884.24;1690466;84;21703;-78
2021/10/22 13:21:36;;;;;;;16.57;9.80;;;;;;;17.50;57.15;99882.85;1703302;84;21738;-78
2021/10/22 13:24:43;;;;;;;20.52;9.90;;;;;;;17.52;57.00;99886.76;1705316;84;21291;-76
2021/10/22 13:27:49;;;;;;;23.05;10.68;;;;;;;17.50;57.10;99883.36;1703597;84;21224;-79
2021/10/22 13:31:02;;;;;;;17.17;9.30;;;;;;;17.40;57.82;99879.77;1704690;84;21299;-76
2021/10/22 13:34:03;;;;;;;16.32;9.33;;;;;;;17.30;57.95;99883.06;1712374;84;21279;-76
2021/10/22 13:37:09;;;;;;;29.07;13.10;;;;;;;17.21;58.23;99884.99;1712352;84;21228;-76
2021/10/22 13:40:15;;;;;;;29.98;15.18;;;;;;;17.09;59.05;99880.23;1689928;84;21338;-76
2021/10/22 13:43:20;;;;;;;30.60;15.90;;;;;;;16.96;59.67;99880.91;1711488;84;21354;-76
2021/10/22 13:46:28;;;;;;;30.80;14.80;;;;;;;16.84;60.19;99886.33;1711655;83;21176;-78
2021/10/22 13:49:35;;;;;;;39.25;16.50;;;;;;;16.71;60.71;99890.05;1712570;84;21196;-76
2021/10/22 13:52:40;;;;;;;28.15;14.80;;;;;;;16.59;61.24;99894.07;1712397;84;21235;-76
2021/10/22 13:55:45;;;;;;;42.65;17.90;;;;;;;16.50;61.54;99902.32;1713031;84;21342;-76
2021/10/22 13:58:50;;;;;;;36.60;19.80;;;;;;;16.43;61.88;99899.33;1690223;84;21911;-76
2021/10/22 14:01:56;;;;;;;27.62;17.02;;;;;;;16.36;62.37;99894.68;1734518;82;21307;-76
2021/10/22 14:05:02;;;;;;;39.67;18.87;;;;;;;16.29;62.76;99902.72;1738114;82;21853;-76
2021/10/22 14:08:07;;;;;;;30.45;17.87;;;;;;;16.23;63.18;99907.73;1691952;85;21320;-76
2021/10/22 14:11:16;;;;;;;43.08;21.23;;;;;;;16.13;63.43;99900.48;1691928;85;21305;-78
2021/10/22 14:31:04;;;;;;;48.05;24.80;;;;;;;15.53;65.49;99898.03;1724424;83;21225;-78
2021/10/22 14:34:11;;;;;;;47.05;22.60;;;;;;;15.43;65.78;99900.38;1712553;84;21263;-78
2021/10/22 14:37:16;;;;;;;40.12;22.07;;;;;;;15.32;66.05;99902.76;1715539;83;21829;-79
2021/10/22 14:40:21;;;;;;;43.78;22.40;;;;;;;15.21;66.18;99899.31;1708349;83;21319;-79
2021/10/22 14:43:34;;;;;;;52.08;23.65;;;;;;;15.06;66.44;99899.56;1705868;84;21215;-79
2021/10/22 14:46:47;;;;;;;56.37;23.02;;;;;;;14.94;66.72;99908.69;1708720;83;21323;-78
2021/10/22 14:49:48;;;;;;;51.05;24.60;;;;;;;14.79;67.08;99904.27;1707369;84;21280;-78
2021/10/22 14:56:01;;;;;;;51.30;20.17;;;;;;;14.51;67.85;99904.49;1707745;84;21339;-78
2021/10/22 14:59:09;;;;;;;46.10;18.42;;;;;;;14.38;68.31;99904.98;1707615;84;21832;-79